sensor_id;sensor_type;location;lat;lon;timestamp;pressure;altitude;pressure_sealevel;temperature;humidity
12215;BME280;6170;42.206;24.142;2023-06-26T00:01:46;98346.47;;;23.25;73.74
12215;BME280;6170;42.206;24.142;2023-06-26T00:04:14;98346.25;;;23.41;73.77
12215;BME280;6170;42.206;24.142;2023-06-26T00:06:41;98337.00;;;23.37;73.79
12215;BME280;6170;42.206;24.142;2023-06-26T00:09:08;98329.91;;;23.36;73.14
12215;BME280;6170;42.206;24.142;2023-06-26T00:11:35;98339.31;;;23.48;72.93
12215;BME280;6170;42.206;24.142;2023-06-26T00:14:02;98342.69;;;23.40;73.39
12215;BME280;6170;42.206;24.142;2023-06-26T00:16:29;98353.63;;;23.40;73.38
12215;BME280;6170;42.206;24.142;2023-06-26T00:18:56;98328.66;;;23.47;73.05
12215;BME280;6170;42.206;24.142;2023-06-26T00:21:25;98351.16;;;23.20;73.75
12215;BME280;6170;42.206;24.142;2023-06-26T00:23:53;98348.06;;;23.08;73.86
12215;BME280;6170;42.206;24.142;2023-06-26T00:26:20;98347.13;;;23.17;73.95
12215;BME280;6170;42.206;24.142;2023-06-26T00:28:46;98341.91;;;22.97;73.98
12215;BME280;6170;42.206;24.142;2023-06-26T00:31:13;98362.94;;;23.20;73.83
12215;BME280;6170;42.206;24.142;2023-06-26T00:33:40;98339.81;;;23.13;73.19
12215;BME280;6170;42.206;24.142;2023-06-26T00:36:07;98362.41;;;23.37;73.42
12215;BME280;6170;42.206;24.142;2023-06-26T00:38:36;98354.13;;;23.23;73.61
12215;BME280;6170;42.206;24.142;2023-06-26T00:41:02;98367.50;;;23.25;73.97
12215;BME280;6170;42.206;24.142;2023-06-26T00:43:30;98360.50;;;23.19;73.48
12215;BME280;6170;42.206;24.142;2023-06-26T00:45:57;98350.97;;;23.16;74.15
12215;BME280;6170;42.206;24.142;2023-06-26T00:48:24;98348.31;;;23.30;73.29
12215;BME280;6170;42.206;24.142;2023-06-26T00:50:51;98349.56;;;23.19;73.43
12215;BME280;6170;42.206;24.142;2023-06-26T00:53:18;98351.25;;;23.34;72.91
12215;BME280;6170;42.206;24.142;2023-06-26T00:55:46;98343.44;;;23.27;73.01
12215;BME280;6170;42.206;24.142;2023-06-26T00:58:13;98357.81;;;23.33;73.00
12215;BME280;6170;42.206;24.142;2023-06-26T01:00:40;98350.75;;;23.32;73.08
12215;BME280;6170;42.206;24.142;2023-06-26T01:03:11;98350.00;;;23.26;73.46
12215;BME280;6170;42.206;24.142;2023-06-26T01:05:38;98350.44;;;23.33;73.26
12215;BME280;6170;42.206;24.142;2023-06-26T01:08:05;98350.03;;;23.45;72.62
12215;BME280;6170;42.206;24.142;2023-06-26T01:10:32;98349.66;;;23.51;72.73
12215;BME280;6170;42.206;24.142;2023-06-26T01:13:00;98340.25;;;23.39;72.54
12215;BME280;6170;42.206;24.142;2023-06-26T01:15:27;98348.63;;;23.47;72.45
12215;BME280;6170;42.206;24.142;2023-06-26T01:17:54;98345.63;;;23.25;73.69
12215;BME280;6170;42.206;24.142;2023-06-26T01:20:29;98358.81;;;23.23;73.47
12215;BME280;6170;42.206;24.142;2023-06-26T01:23:03;98356.81;;;23.10;74.19
12215;BME280;6170;42.206;24.142;2023-06-26T01:25:37;98350.25;;;22.87;74.79
12215;BME280;6170;42.206;24.142;2023-06-26T01:28:09;98364.19;;;23.09;74.29
12215;BME280;6170;42.206;24.142;2023-06-26T01:30:41;98352.88;;;23.16;74.32
12215;BME280;6170;42.206;24.142;2023-06-26T01:33:09;98354.41;;;23.03;74.58
12215;BME280;6170;42.206;24.142;2023-06-26T01:35:37;98349.09;;;23.12;74.26
12215;BME280;6170;42.206;24.142;2023-06-26T01:38:14;98342.09;;;23.24;74.01
12215;BME280;6170;42.206;24.142;2023-06-26T01:40:42;98343.69;;;23.07;74.48
12215;BME280;6170;42.206;24.142;2023-06-26T01:43:19;98343.41;;;23.08;74.04
12215;BME280;6170;42.206;24.142;2023-06-26T01:45:51;98356.06;;;23.23;74.43
12215;BME280;6170;42.206;24.142;2023-06-26T01:48:22;98340.09;;;23.11;74.54
12215;BME280;6170;42.206;24.142;2023-06-26T01:50:51;98353.03;;;23.24;74.18
12215;BME280;6170;42.206;24.142;2023-06-26T01:53:21;98376.81;;;23.24;74.54
12215;BME280;6170;42.206;24.142;2023-06-26T01:55:53;98351.50;;;23.18;74.51
12215;BME280;6170;42.206;24.142;2023-06-26T01:58:23;98352.94;;;23.11;74.65
12215;BME280;6170;42.206;24.142;2023-06-26T02:00:51;98353.47;;;23.13;74.85
12215;BME280;6170;42.206;24.142;2023-06-26T02:03:19;98351.84;;;23.12;74.51
12215;BME280;6170;42.206;24.142;2023-06-26T02:05:46;98346.09;;;23.13;74.96
12215;BME280;6170;42.206;24.142;2023-06-26T02:08:13;98344.69;;;23.16;74.67
12215;BME280;6170;42.206;24.142;2023-06-26T02:10:41;98345.13;;;23.04;74.97
12215;BME280;6170;42.206;24.142;2023-06-26T02:13:07;98336.38;;;23.02;75.11
12215;BME280;6170;42.206;24.142;2023-06-26T02:15:36;98342.63;;;23.26;74.50
12215;BME280;6170;42.206;24.142;2023-06-26T02:18:02;98325.03;;;23.14;73.90
12215;BME280;6170;42.206;24.142;2023-06-26T02:20:29;98335.16;;;23.13;74.59
12215;BME280;6170;42.206;24.142;2023-06-26T02:22:56;98333.97;;;23.19;74.79
12215;BME280;6170;42.206;24.142;2023-06-26T02:25:23;98334.34;;;23.13;74.64
12215;BME280;6170;42.206;24.142;2023-06-26T02:27:50;98333.81;;;23.11;74.80
12215;BME280;6170;42.206;24.142;2023-06-26T02:30:17;98349.41;;;23.29;74.33
12215;BME280;6170;42.206;24.142;2023-06-26T02:32:45;98327.59;;;23.24;74.51
12215;BME280;6170;42.206;24.142;2023-06-26T02:35:12;98320.47;;;23.09;75.08
12215;BME280;6170;42.206;24.142;2023-06-26T02:37:39;98325.16;;;23.04;75.47
12215;BME280;6170;42.206;24.142;2023-06-26T02:40:07;98333.81;;;23.11;75.25
12215;BME280;6170;42.206;24.142;2023-06-26T02:42:34;98337.66;;;23.28;74.57
12215;BME280;6170;42.206;24.142;2023-06-26T02:45:02;98327.47;;;23.15;74.82
12215;BME280;6170;42.206;24.142;2023-06-26T02:47:28;98328.28;;;23.16;74.91
12215;BME280;6170;42.206;24.142;2023-06-26T02:49:57;98323.41;;;23.13;75.27
12215;BME280;6170;42.206;24.142;2023-06-26T02:52:23;98357.47;;;23.20;75.75
12215;BME280;6170;42.206;24.142;2023-06-26T02:54:50;98324.22;;;23.13;75.24
12215;BME280;6170;42.206;24.142;2023-06-26T02:57:17;98327.59;;;23.24;74.83
12215;BME280;6170;42.206;24.142;2023-06-26T02:59:44;98333.97;;;23.19;75.01
12215;BME280;6170;42.206;24.142;2023-06-26T03:02:11;98301.66;;;22.84;75.22
12215;BME280;6170;42.206;24.142;2023-06-26T03:04:38;98333.81;;;22.92;75.57
12215;BME280;6170;42.206;24.142;2023-06-26T03:07:06;98329.78;;;22.84;75.77
12215;BME280;6170;42.206;24.142;2023-06-26T03:09:33;98325.72;;;22.82;75.55
12215;BME280;6170;42.206;24.142;2023-06-26T03:12:00;98322.78;;;22.78;75.90
12215;BME280;6170;42.206;24.142;2023-06-26T03:14:27;98331.88;;;22.69;76.13
12215;BME280;6170;42.206;24.142;2023-06-26T03:16:55;98333.63;;;22.60;76.55
12215;BME280;6170;42.206;24.142;2023-06-26T03:19:23;98329.41;;;22.72;76.23
12215;BME280;6170;42.206;24.142;2023-06-26T03:21:50;98344.69;;;22.73;75.82
12215;BME280;6170;42.206;24.142;2023-06-26T03:24:18;98353.50;;;22.89;75.85
12215;BME280;6170;42.206;24.142;2023-06-26T03:26:45;98343.50;;;22.56;76.95
12215;BME280;6170;42.206;24.142;2023-06-26T03:29:12;98341.16;;;22.73;76.29
12215;BME280;6170;42.206;24.142;2023-06-26T03:31:39;98338.72;;;22.66;76.63
12215;BME280;6170;42.206;24.142;2023-06-26T03:34:06;98335.47;;;22.64;76.72
12215;BME280;6170;42.206;24.142;2023-06-26T03:36:33;98348.75;;;22.76;76.11
12215;BME280;6170;42.206;24.142;2023-06-26T03:39:01;98348.19;;;22.79;76.15
12215;BME280;6170;42.206;24.142;2023-06-26T03:41:30;98367.56;;;23.20;75.20
12215;BME280;6170;42.206;24.142;2023-06-26T03:43:57;98322.03;;;22.73;76.08
12215;BME280;6170;42.206;24.142;2023-06-26T03:46:25;98341.63;;;22.99;75.44
12215;BME280;6170;42.206;24.142;2023-06-26T03:48:52;98355.03;;;23.19;74.58
12215;BME280;6170;42.206;24.142;2023-06-26T03:51:19;98359.78;;;23.51;74.36
12215;BME280;6170;42.206;24.142;2023-06-26T03:53:46;98347.66;;;23.57;74.13
12215;BME280;6170;42.206;24.142;2023-06-26T03:56:13;98348.81;;;23.69;73.36
12215;BME280;6170;42.206;24.142;2023-06-26T03:58:41;98341.03;;;23.63;73.14
12215;BME280;6170;42.206;24.142;2023-06-26T04:01:08;98358.81;;;23.79;73.09
12215;BME280;6170;42.206;24.142;2023-06-26T04:03:35;98358.00;;;23.79;73.22
12215;BME280;6170;42.206;24.142;2023-06-26T04:06:02;98354.66;;;23.82;73.18
12215;BME280;6170;42.206;24.142;2023-06-26T04:08:29;98381.47;;;23.98;73.63
12215;BME280;6170;42.206;24.142;2023-06-26T04:10:56;98349.09;;;23.87;72.86
12215;BME280;6170;42.206;24.142;2023-06-26T04:13:24;98361.59;;;23.93;72.94
12215;BME280;6170;42.206;24.142;2023-06-26T04:15:52;98377.41;;;23.96;73.46
12215;BME280;6170;42.206;24.142;2023-06-26T04:18:19;98355.78;;;23.62;73.67
12215;BME280;6170;42.206;24.142;2023-06-26T04:21:04;98357.53;;;23.34;73.87
12215;BME280;6170;42.206;24.142;2023-06-26T04:23:32;98353.75;;;23.11;74.41
12215;BME280;6170;42.206;24.142;2023-06-26T04:25:59;98373.53;;;23.64;74.01
12215;BME280;6170;42.206;24.142;2023-06-26T04:28:26;98367.28;;;23.78;73.34
12215;BME280;6170;42.206;24.142;2023-06-26T04:30:54;98386.94;;;23.98;72.40
12215;BME280;6170;42.206;24.142;2023-06-26T04:33:21;98365.56;;;24.00;72.39
12215;BME280;6170;42.206;24.142;2023-06-26T04:35:48;98375.69;;;23.67;73.26
12215;BME280;6170;42.206;24.142;2023-06-26T04:38:15;98356.47;;;23.86;73.37
12215;BME280;6170;42.206;24.142;2023-06-26T04:40:42;98360.09;;;24.00;73.24
12215;BME280;6170;42.206;24.142;2023-06-26T04:43:09;98355.75;;;24.13;72.38
12215;BME280;6170;42.206;24.142;2023-06-26T04:45:36;98368.09;;;23.97;72.59
12215;BME280;6170;42.206;24.142;2023-06-26T04:48:05;98370.41;;;23.90;73.26
12215;BME280;6170;42.206;24.142;2023-06-26T04:50:32;98368.09;;;23.97;72.88
12215;BME280;6170;42.206;24.142;2023-06-26T04:52:59;98371.63;;;23.97;72.92
12215;BME280;6170;42.206;24.142;2023-06-26T04:55:26;98364.66;;;24.24;72.46
12215;BME280;6170;42.206;24.142;2023-06-26T04:57:53;98367.34;;;24.56;72.66
12215;BME280;6170;42.206;24.142;2023-06-26T05:00:20;98417.81;;;24.96;71.14
12215;BME280;6170;42.206;24.142;2023-06-26T05:02:47;98374.09;;;24.31;71.94
12215;BME280;6170;42.206;24.142;2023-06-26T05:05:16;98366.78;;;24.40;71.35
12215;BME280;6170;42.206;24.142;2023-06-26T05:07:43;98368.34;;;24.87;69.36
12215;BME280;6170;42.206;24.142;2023-06-26T05:10:10;98371.50;;;24.81;70.40
12215;BME280;6170;42.206;24.142;2023-06-26T05:12:37;98365.03;;;25.04;69.57
12215;BME280;6170;42.206;24.142;2023-06-26T05:15:04;98377.41;;;25.01;70.17
12215;BME280;6170;42.206;24.142;2023-06-26T05:17:31;98364.00;;;25.49;67.58
12215;BME280;6170;42.206;24.142;2023-06-26T05:19:58;98382.38;;;25.85;68.25
12215;BME280;6170;42.206;24.142;2023-06-26T05:22:27;98386.69;;;26.75;64.86
12215;BME280;6170;42.206;24.142;2023-06-26T05:24:55;98381.22;;;27.40;63.50
12215;BME280;6170;42.206;24.142;2023-06-26T05:27:24;98358.09;;;27.76;62.31
12215;BME280;6170;42.206;24.142;2023-06-26T05:29:51;98380.22;;;27.19;63.12
12215;BME280;6170;42.206;24.142;2023-06-26T05:32:18;98378.53;;;26.92;63.12
12215;BME280;6170;42.206;24.142;2023-06-26T05:34:47;98379.34;;;26.62;63.40
12215;BME280;6170;42.206;24.142;2023-06-26T05:37:20;98388.13;;;26.72;63.92
12215;BME280;6170;42.206;24.142;2023-06-26T05:39:49;98383.53;;;27.55;63.62
12215;BME280;6170;42.206;24.142;2023-06-26T05:42:17;98392.63;;;27.64;62.06
12215;BME280;6170;42.206;24.142;2023-06-26T05:44:43;98387.72;;;26.88;63.75
12215;BME280;6170;42.206;24.142;2023-06-26T05:47:10;98389.69;;;27.52;63.04
12215;BME280;6170;42.206;24.142;2023-06-26T05:49:37;98390.78;;;28.29;62.00
12215;BME280;6170;42.206;24.142;2023-06-26T05:52:05;98371.38;;;28.80;60.12
12215;BME280;6170;42.206;24.142;2023-06-26T05:54:32;98360.59;;;29.17;59.48
12215;BME280;6170;42.206;24.142;2023-06-26T05:57:02;98415.16;;;29.49;59.45
12215;BME280;6170;42.206;24.142;2023-06-26T05:59:31;98384.53;;;29.42;57.86
12215;BME280;6170;42.206;24.142;2023-06-26T06:01:58;98383.72;;;28.66;59.62
12215;BME280;6170;42.206;24.142;2023-06-26T06:04:25;98389.09;;;29.00;60.94
12215;BME280;6170;42.206;24.142;2023-06-26T06:06:52;98369.09;;;29.12;59.86
12215;BME280;6170;42.206;24.142;2023-06-26T06:09:18;98371.88;;;29.82;58.65
12215;BME280;6170;42.206;24.142;2023-06-26T06:11:45;98379.88;;;29.55;57.90
12215;BME280;6170;42.206;24.142;2023-06-26T06:14:14;98385.34;;;29.42;57.83
12215;BME280;6170;42.206;24.142;2023-06-26T06:16:40;98391.44;;;29.48;59.31
12215;BME280;6170;42.206;24.142;2023-06-26T06:19:07;98384.44;;;29.71;58.29
12215;BME280;6170;42.206;24.142;2023-06-26T06:21:36;98377.28;;;29.29;59.42
12215;BME280;6170;42.206;24.142;2023-06-26T06:24:04;98381.19;;;28.52;59.58
12215;BME280;6170;42.206;24.142;2023-06-26T06:26:32;98366.75;;;28.46;59.58
12215;BME280;6170;42.206;24.142;2023-06-26T06:28:58;98368.47;;;28.13;60.27
12215;BME280;6170;42.206;24.142;2023-06-26T06:31:27;98349.53;;;27.77;59.54
12215;BME280;6170;42.206;24.142;2023-06-26T06:33:54;98370.44;;;27.87;59.54
12215;BME280;6170;42.206;24.142;2023-06-26T06:36:21;98367.31;;;27.45;60.52
12215;BME280;6170;42.206;24.142;2023-06-26T06:38:48;98379.66;;;27.56;62.12
12215;BME280;6170;42.206;24.142;2023-06-26T06:41:14;98382.06;;;27.58;61.66
12215;BME280;6170;42.206;24.142;2023-06-26T06:43:42;98377.22;;;27.72;61.79
12215;BME280;6170;42.206;24.142;2023-06-26T06:46:09;98384.31;;;28.25;60.52
12215;BME280;6170;42.206;24.142;2023-06-26T06:48:37;98376.34;;;28.87;59.81
12215;BME280;6170;42.206;24.142;2023-06-26T06:51:04;98385.25;;;29.72;58.07
12215;BME280;6170;42.206;24.142;2023-06-26T06:53:31;98379.25;;;29.70;56.51
12215;BME280;6170;42.206;24.142;2023-06-26T06:55:58;98379.16;;;30.20;56.39
12215;BME280;6170;42.206;24.142;2023-06-26T06:58:24;98376.97;;;30.46;56.65
12215;BME280;6170;42.206;24.142;2023-06-26T07:00:51;98366.06;;;31.35;54.87
12215;BME280;6170;42.206;24.142;2023-06-26T07:03:18;98373.94;;;31.08;54.10
12215;BME280;6170;42.206;24.142;2023-06-26T07:05:48;98379.41;;;31.97;53.08
12215;BME280;6170;42.206;24.142;2023-06-26T07:08:15;98379.44;;;32.25;52.81
12215;BME280;6170;42.206;24.142;2023-06-26T07:10:41;98379.53;;;31.60;51.61
12215;BME280;6170;42.206;24.142;2023-06-26T07:13:08;98371.59;;;31.35;53.54
12215;BME280;6170;42.206;24.142;2023-06-26T07:15:35;98373.13;;;31.84;53.69
12215;BME280;6170;42.206;24.142;2023-06-26T07:18:02;98380.25;;;32.25;51.44
12215;BME280;6170;42.206;24.142;2023-06-26T07:20:29;98373.16;;;32.00;51.68
12215;BME280;6170;42.206;24.142;2023-06-26T07:22:57;98407.59;;;31.99;50.19
12215;BME280;6170;42.206;24.142;2023-06-26T07:25:24;98361.44;;;31.51;52.74
12215;BME280;6170;42.206;24.142;2023-06-26T07:27:51;98375.56;;;31.74;50.33
12215;BME280;6170;42.206;24.142;2023-06-26T07:30:18;98377.38;;;31.17;50.90
12215;BME280;6170;42.206;24.142;2023-06-26T07:32:45;98380.97;;;30.04;53.58
12215;BME280;6170;42.206;24.142;2023-06-26T07:35:12;98371.03;;;29.61;54.38
12215;BME280;6170;42.206;24.142;2023-06-26T07:37:39;98381.69;;;28.92;54.93
12215;BME280;6170;42.206;24.142;2023-06-26T07:40:09;98367.38;;;28.52;56.17
12215;BME280;6170;42.206;24.142;2023-06-26T07:42:36;98375.31;;;28.71;57.75
12215;BME280;6170;42.206;24.142;2023-06-26T07:45:04;98378.53;;;28.64;56.51
12215;BME280;6170;42.206;24.142;2023-06-26T07:47:36;98358.91;;;28.19;57.99
12215;BME280;6170;42.206;24.142;2023-06-26T07:50:03;98373.00;;;28.73;58.17
12215;BME280;6170;42.206;24.142;2023-06-26T07:52:30;98375.09;;;29.84;56.03
12215;BME280;6170;42.206;24.142;2023-06-26T07:54:57;98349.25;;;30.67;53.41
12215;BME280;6170;42.206;24.142;2023-06-26T07:57:25;98386.66;;;30.52;53.00
12215;BME280;6170;42.206;24.142;2023-06-26T07:59:52;98387.50;;;29.78;54.19
12215;BME280;6170;42.206;24.142;2023-06-26T08:02:19;98393.69;;;29.25;55.85
12215;BME280;6170;42.206;24.142;2023-06-26T08:04:46;98390.84;;;28.75;57.94
12215;BME280;6170;42.206;24.142;2023-06-26T08:07:13;98395.03;;;28.18;57.16
12215;BME280;6170;42.206;24.142;2023-06-26T08:09:40;98390.97;;;27.81;58.42
12215;BME280;6170;42.206;24.142;2023-06-26T08:12:07;98388.38;;;27.93;58.14
12215;BME280;6170;42.206;24.142;2023-06-26T08:14:35;98409.13;;;27.56;58.60
12215;BME280;6170;42.206;24.142;2023-06-26T08:17:02;98385.16;;;27.99;58.29
12215;BME280;6170;42.206;24.142;2023-06-26T08:19:29;98378.03;;;27.73;59.57
12215;BME280;6170;42.206;24.142;2023-06-26T08:21:56;98394.41;;;27.60;59.86
12215;BME280;6170;42.206;24.142;2023-06-26T08:24:23;98391.31;;;27.70;58.21
12215;BME280;6170;42.206;24.142;2023-06-26T08:26:50;98433.25;;;28.45;58.94
12215;BME280;6170;42.206;24.142;2023-06-26T08:29:17;98394.50;;;28.33;57.99
12215;BME280;6170;42.206;24.142;2023-06-26T08:31:45;98431.56;;;28.78;59.10
12215;BME280;6170;42.206;24.142;2023-06-26T08:34:12;98402.72;;;29.05;57.24
12215;BME280;6170;42.206;24.142;2023-06-26T08:36:38;98397.31;;;28.79;56.24
12215;BME280;6170;42.206;24.142;2023-06-26T08:39:05;98397.34;;;29.09;57.36
12215;BME280;6170;42.206;24.142;2023-06-26T08:41:34;98395.75;;;29.08;56.58
12215;BME280;6170;42.206;24.142;2023-06-26T08:44:01;98394.97;;;28.98;56.52
12215;BME280;6170;42.206;24.142;2023-06-26T08:46:28;98389.69;;;29.14;58.42
12215;BME280;6170;42.206;24.142;2023-06-26T08:49:01;98394.44;;;29.43;55.70
12215;BME280;6170;42.206;24.142;2023-06-26T08:51:28;98383.66;;;29.71;56.30
12215;BME280;6170;42.206;24.142;2023-06-26T08:53:57;98377.91;;;29.76;55.40
12215;BME280;6170;42.206;24.142;2023-06-26T08:56:28;98386.06;;;29.22;55.33
12215;BME280;6170;42.206;24.142;2023-06-26T08:58:58;98385.19;;;30.01;55.93
12215;BME280;6170;42.206;24.142;2023-06-26T09:01:25;98357.38;;;30.18;53.69
12215;BME280;6170;42.206;24.142;2023-06-26T09:03:52;98376.09;;;30.78;53.23
12215;BME280;6170;42.206;24.142;2023-06-26T09:06:20;98358.47;;;30.71;53.21
12215;BME280;6170;42.206;24.142;2023-06-26T09:08:47;98356.56;;;31.48;53.07
12215;BME280;6170;42.206;24.142;2023-06-26T09:11:14;98356.13;;;31.34;52.59
12215;BME280;6170;42.206;24.142;2023-06-26T09:13:41;98358.41;;;31.68;54.24
12215;BME280;6170;42.206;24.142;2023-06-26T09:16:09;98352.31;;;31.38;52.75
12215;BME280;6170;42.206;24.142;2023-06-26T09:18:36;98323.19;;;31.16;52.50
12215;BME280;6170;42.206;24.142;2023-06-26T09:21:06;98347.47;;;31.87;52.40
12215;BME280;6170;42.206;24.142;2023-06-26T09:23:35;98351.16;;;31.91;50.96
12215;BME280;6170;42.206;24.142;2023-06-26T09:26:03;98348.47;;;32.23;50.31
12215;BME280;6170;42.206;24.142;2023-06-26T09:28:30;98355.41;;;32.44;51.30
12215;BME280;6170;42.206;24.142;2023-06-26T09:31:01;98357.63;;;32.23;53.32
12215;BME280;6170;42.206;24.142;2023-06-26T09:33:33;98362.38;;;32.38;48.72
12215;BME280;6170;42.206;24.142;2023-06-26T09:36:04;98352.22;;;33.05;49.40
12215;BME280;6170;42.206;24.142;2023-06-26T09:38:32;98340.91;;;33.14;48.46
12215;BME280;6170;42.206;24.142;2023-06-26T09:41:00;98344.50;;;32.51;48.57
12215;BME280;6170;42.206;24.142;2023-06-26T09:43:27;98326.94;;;31.48;49.64
12215;BME280;6170;42.206;24.142;2023-06-26T09:45:56;98338.06;;;30.88;52.04
12215;BME280;6170;42.206;24.142;2023-06-26T09:48:24;98342.56;;;31.16;51.77
12215;BME280;6170;42.206;24.142;2023-06-26T09:50:50;98335.78;;;31.54;49.61
12215;BME280;6170;42.206;24.142;2023-06-26T09:53:18;98340.31;;;31.46;50.09
12215;BME280;6170;42.206;24.142;2023-06-26T09:55:46;98315.00;;;30.84;52.14
12215;BME280;6170;42.206;24.142;2023-06-26T09:58:15;98333.09;;;31.70;51.19
12215;BME280;6170;42.206;24.142;2023-06-26T10:00:43;98331.81;;;32.07;50.47
12215;BME280;6170;42.206;24.142;2023-06-26T10:03:10;98323.44;;;31.91;49.22
12215;BME280;6170;42.206;24.142;2023-06-26T10:05:38;98334.41;;;31.48;49.51
12215;BME280;6170;42.206;24.142;2023-06-26T10:08:05;98330.00;;;31.71;49.71
12215;BME280;6170;42.206;24.142;2023-06-26T10:10:33;98325.00;;;32.48;51.43
12215;BME280;6170;42.206;24.142;2023-06-26T10:13:06;98318.56;;;32.60;51.18
12215;BME280;6170;42.206;24.142;2023-06-26T10:15:36;98297.78;;;32.53;49.07
12215;BME280;6170;42.206;24.142;2023-06-26T10:18:04;98320.50;;;33.06;49.43
12215;BME280;6170;42.206;24.142;2023-06-26T10:20:32;98314.88;;;33.03;49.87
12215;BME280;6170;42.206;24.142;2023-06-26T10:23:00;98289.53;;;33.04;46.51
12215;BME280;6170;42.206;24.142;2023-06-26T10:25:30;98314.34;;;32.97;47.72
12215;BME280;6170;42.206;24.142;2023-06-26T10:28:00;98305.03;;;32.27;48.86
12215;BME280;6170;42.206;24.142;2023-06-26T10:30:32;98298.88;;;31.90;49.39
12215;BME280;6170;42.206;24.142;2023-06-26T10:33:01;98310.50;;;30.91;52.07
12215;BME280;6170;42.206;24.142;2023-06-26T10:35:30;98296.28;;;30.32;53.49
12215;BME280;6170;42.206;24.142;2023-06-26T10:38:01;98307.06;;;30.70;52.77
12215;BME280;6170;42.206;24.142;2023-06-26T10:40:40;98297.03;;;30.53;52.56
12215;BME280;6170;42.206;24.142;2023-06-26T10:43:07;98298.47;;;31.36;50.98
12215;BME280;6170;42.206;24.142;2023-06-26T10:45:35;98295.31;;;31.49;51.44
12215;BME280;6170;42.206;24.142;2023-06-26T10:48:03;98291.97;;;31.84;48.47
12215;BME280;6170;42.206;24.142;2023-06-26T10:50:31;98291.72;;;31.89;49.06
12215;BME280;6170;42.206;24.142;2023-06-26T10:53:15;98304.81;;;32.79;48.57
12215;BME280;6170;42.206;24.142;2023-06-26T10:55:50;98292.78;;;32.59;46.88
12215;BME280;6170;42.206;24.142;2023-06-26T10:58:27;98284.22;;;32.48;46.50
12215;BME280;6170;42.206;24.142;2023-06-26T11:01:19;98281.34;;;32.29;47.66
12215;BME280;6170;42.206;24.142;2023-06-26T11:03:49;98278.63;;;32.80;47.70
12215;BME280;6170;42.206;24.142;2023-06-26T11:06:27;98277.84;;;32.32;46.99
12215;BME280;6170;42.206;24.142;2023-06-26T11:09:00;98272.66;;;32.46;50.18
12215;BME280;6170;42.206;24.142;2023-06-26T11:11:57;98273.69;;;33.05;49.30
12215;BME280;6170;42.206;24.142;2023-06-26T11:14:27;98270.09;;;33.04;47.58
12215;BME280;6170;42.206;24.142;2023-06-26T11:16:55;98275.50;;;32.81;50.60
12215;BME280;6170;42.206;24.142;2023-06-26T11:19:25;98260.97;;;33.04;49.70
12215;BME280;6170;42.206;24.142;2023-06-26T11:21:58;98247.88;;;33.39;48.19
12215;BME280;6170;42.206;24.142;2023-06-26T11:24:25;98271.78;;;33.09;48.69
12215;BME280;6170;42.206;24.142;2023-06-26T11:26:52;98268.91;;;33.21;45.08
12215;BME280;6170;42.206;24.142;2023-06-26T11:29:19;98277.66;;;32.88;47.05
12215;BME280;6170;42.206;24.142;2023-06-26T11:31:46;98261.50;;;33.09;48.84
12215;BME280;6170;42.206;24.142;2023-06-26T11:34:13;98264.47;;;33.55;48.67
12215;BME280;6170;42.206;24.142;2023-06-26T11:36:45;98260.84;;;32.81;45.21
12215;BME280;6170;42.206;24.142;2023-06-26T11:39:13;98260.34;;;31.85;47.49
12215;BME280;6170;42.206;24.142;2023-06-26T11:41:40;98270.25;;;31.86;49.50
12215;BME280;6170;42.206;24.142;2023-06-26T11:44:08;98281.28;;;31.98;48.34
12215;BME280;6170;42.206;24.142;2023-06-26T11:46:36;98273.19;;;31.77;50.00
12215;BME280;6170;42.206;24.142;2023-06-26T11:49:03;98276.72;;;31.50;48.94
12215;BME280;6170;42.206;24.142;2023-06-26T11:51:31;98270.88;;;30.75;48.41
12215;BME280;6170;42.206;24.142;2023-06-26T11:54:00;98281.25;;;30.78;49.79
12215;BME280;6170;42.206;24.142;2023-06-26T11:56:28;98248.84;;;29.52;51.66
12215;BME280;6170;42.206;24.142;2023-06-26T11:58:56;98267.84;;;29.86;52.02
12215;BME280;6170;42.206;24.142;2023-06-26T12:01:23;98244.22;;;29.02;54.68
12215;BME280;6170;42.206;24.142;2023-06-26T12:03:50;98271.59;;;29.08;55.97
12215;BME280;6170;42.206;24.142;2023-06-26T12:06:18;98277.09;;;29.70;53.58
12215;BME280;6170;42.206;24.142;2023-06-26T12:08:45;98277.06;;;30.36;51.83
12215;BME280;6170;42.206;24.142;2023-06-26T12:11:14;98284.34;;;31.01;52.24
12215;BME280;6170;42.206;24.142;2023-06-26T12:13:42;98275.00;;;31.57;49.83
12215;BME280;6170;42.206;24.142;2023-06-26T12:16:12;98281.72;;;32.00;49.03
12215;BME280;6170;42.206;24.142;2023-06-26T12:18:40;98276.22;;;32.16;48.38
12215;BME280;6170;42.206;24.142;2023-06-26T12:21:07;98272.03;;;32.37;46.84
12215;BME280;6170;42.206;24.142;2023-06-26T12:23:39;98281.81;;;32.03;48.62
12215;BME280;6170;42.206;24.142;2023-06-26T12:26:19;98284.84;;;31.98;47.95
12215;BME280;6170;42.206;24.142;2023-06-26T12:28:47;98276.38;;;31.51;50.21
12215;BME280;6170;42.206;24.142;2023-06-26T12:31:14;98237.53;;;30.96;48.91
12215;BME280;6170;42.206;24.142;2023-06-26T12:33:42;98290.22;;;31.63;50.16
12215;BME280;6170;42.206;24.142;2023-06-26T12:36:11;98279.94;;;31.00;50.21
12215;BME280;6170;42.206;24.142;2023-06-26T12:38:38;98254.03;;;31.04;50.25
12215;BME280;6170;42.206;24.142;2023-06-26T12:41:12;98203.94;;;30.45;50.16
12215;BME280;6170;42.206;24.142;2023-06-26T12:43:41;98260.63;;;30.75;50.60
12215;BME280;6170;42.206;24.142;2023-06-26T12:46:08;98258.09;;;30.70;50.93
12215;BME280;6170;42.206;24.142;2023-06-26T12:48:38;98261.31;;;31.37;52.22
12215;BME280;6170;42.206;24.142;2023-06-26T12:51:10;98259.28;;;31.89;49.59
12215;BME280;6170;42.206;24.142;2023-06-26T12:53:37;98250.41;;;31.84;50.50
12215;BME280;6170;42.206;24.142;2023-06-26T12:56:05;98258.94;;;31.63;50.18
12215;BME280;6170;42.206;24.142;2023-06-26T12:58:32;98277.84;;;31.33;49.33
12215;BME280;6170;42.206;24.142;2023-06-26T13:01:02;98269.25;;;30.74;50.73
12215;BME280;6170;42.206;24.142;2023-06-26T13:03:29;98262.31;;;30.92;51.08
12215;BME280;6170;42.206;24.142;2023-06-26T13:05:56;98261.53;;;30.80;51.88